createdAt,value
2024-02-10T00:02:20.248Z,1.90
2024-02-10T00:04:48.164Z,1.90
2024-02-10T00:07:17.003Z,1.90
2024-02-10T00:09:44.299Z,1.90
2024-02-10T00:12:11.646Z,1.90
2024-02-10T00:14:39.299Z,1.90
2024-02-10T00:17:10.918Z,1.90
2024-02-10T00:19:38.637Z,1.90
2024-02-10T00:22:09.418Z,1.90
2024-02-10T00:24:37.022Z,1.90
2024-02-10T00:27:04.864Z,1.90
2024-02-10T00:29:35.610Z,1.90
2024-02-10T00:32:05.002Z,1.90
2024-02-10T00:34:34.676Z,1.90
2024-02-10T00:37:02.132Z,1.90
2024-02-10T00:39:29.336Z,1.90
2024-02-10T00:41:57.867Z,1.90
2024-02-10T00:44:29.214Z,1.90
2024-02-10T00:47:01.598Z,2.00
2024-02-10T00:49:28.968Z,2.00
2024-02-10T00:51:58.667Z,1.90
2024-02-10T00:54:29.229Z,1.90
2024-02-10T00:56:57.188Z,1.90
2024-02-10T00:59:24.579Z,1.90
2024-02-10T01:01:53.892Z,1.90
2024-02-10T01:04:21.740Z,1.90
2024-02-10T01:06:50.175Z,1.90
2024-02-10T01:09:17.373Z,1.90
2024-02-10T01:11:44.842Z,1.90
2024-02-10T01:14:13.629Z,1.90
2024-02-10T01:16:45.174Z,1.90
2024-02-10T01:19:12.956Z,1.90
2024-02-10T01:21:41.420Z,1.90
2024-02-10T01:24:08.847Z,1.90
2024-02-10T01:26:36.787Z,2.00
2024-02-10T01:29:09.303Z,2.00
2024-02-10T01:31:37.523Z,2.00
2024-02-10T01:34:05.041Z,2.00
2024-02-10T01:36:34.535Z,2.00
2024-02-10T01:39:02.788Z,2.00
2024-02-10T01:41:30.269Z,2.00
2024-02-10T01:43:59.708Z,2.00
2024-02-10T01:46:28.077Z,2.00
2024-02-10T01:48:59.969Z,1.40
2024-02-10T01:51:27.808Z,2.00
2024-02-10T01:53:57.931Z,2.10
2024-02-10T01:56:30.979Z,2.10
2024-02-10T01:58:58.689Z,2.10
2024-02-10T02:01:26.588Z,2.00
2024-02-10T02:03:54.646Z,2.10
2024-02-10T02:06:22.799Z,2.00
2024-02-10T02:08:52.468Z,2.10
2024-02-10T02:11:19.899Z,2.10
2024-02-10T02:13:51.311Z,2.10
2024-02-10T02:16:19.103Z,2.00
2024-02-10T02:18:47.399Z,2.10
2024-02-10T02:21:15.044Z,2.10
2024-02-10T02:23:45.588Z,2.10
2024-02-10T02:26:13.280Z,2.10
2024-02-10T02:28:43.809Z,2.10
2024-02-10T02:31:11.389Z,2.20
2024-02-10T02:33:39.902Z,2.20
2024-02-10T02:36:08.561Z,2.10
2024-02-10T02:38:35.905Z,2.10
2024-02-10T02:41:03.459Z,2.20
2024-02-10T02:43:36.971Z,2.10
2024-02-10T02:46:04.918Z,2.20
2024-02-10T02:48:32.373Z,2.20
2024-02-10T02:51:00.240Z,2.20
2024-02-10T02:53:29.441Z,2.20
2024-02-10T02:55:58.686Z,2.20
2024-02-10T02:58:25.962Z,2.20
2024-02-10T03:00:53.644Z,2.20
2024-02-10T03:03:21.059Z,2.20
2024-02-10T03:05:48.513Z,2.20
2024-02-10T03:08:15.719Z,2.20
2024-02-10T03:10:43.223Z,2.20
2024-02-10T03:13:10.538Z,2.20
2024-02-10T03:15:39.320Z,2.20
2024-02-10T03:18:08.874Z,2.20
2024-02-10T03:20:36.314Z,2.30
2024-02-10T03:23:04.868Z,2.30
2024-02-10T03:25:32.910Z,2.30
2024-02-10T03:28:04.047Z,2.30
2024-02-10T03:30:31.295Z,2.30
2024-02-10T03:32:59.268Z,2.30
2024-02-10T03:35:28.748Z,2.30
2024-02-10T03:37:56.451Z,2.30
2024-02-10T03:40:24.020Z,2.20
2024-02-10T03:42:52.217Z,2.30
2024-02-10T03:45:20.095Z,2.30
2024-02-10T03:47:48.179Z,2.20
2024-02-10T03:50:18.695Z,2.30
2024-02-10T03:52:47.311Z,2.30
2024-02-10T03:55:15.816Z,2.30
2024-02-10T03:57:43.523Z,2.30
2024-02-10T04:00:12.238Z,2.30
2024-02-10T04:02:39.684Z,2.30
2024-02-10T04:05:10.957Z,2.40
2024-02-10T04:07:38.362Z,2.30
2024-02-10T04:10:13.601Z,2.40
2024-02-10T04:12:41.022Z,2.40
2024-02-10T04:15:12.698Z,2.40
2024-02-10T04:17:40.786Z,2.40
2024-02-10T04:20:10.766Z,2.40
2024-02-10T04:22:46.667Z,2.40
2024-02-10T04:25:15.605Z,2.50
2024-02-10T04:27:43.506Z,2.50
2024-02-10T04:30:15.106Z,2.40
2024-02-10T04:32:49.515Z,2.40
2024-02-10T04:35:17.049Z,2.40
2024-02-10T04:37:53.349Z,2.50
2024-02-10T04:40:26.545Z,2.50
2024-02-10T04:42:55.209Z,2.50
2024-02-10T04:45:34.161Z,2.50
2024-02-10T04:48:10.044Z,2.50
2024-02-10T04:50:37.865Z,2.50
2024-02-10T04:53:08.614Z,2.50
2024-02-10T04:55:55.832Z,2.90
2024-02-10T04:58:23.467Z,2.50
2024-02-10T05:00:51.022Z,2.50
2024-02-10T05:03:18.398Z,2.50
2024-02-10T05:05:45.874Z,2.40
2024-02-10T05:08:13.882Z,2.50
2024-02-10T05:10:42.193Z,2.60
2024-02-10T05:13:09.628Z,2.60
2024-02-10T05:15:39.673Z,2.50
2024-02-10T05:18:09.801Z,2.60
2024-02-10T05:20:37.706Z,2.50
2024-02-10T05:23:05.446Z,2.60
2024-02-10T05:25:36.225Z,2.60
2024-02-10T05:28:04.394Z,2.60
2024-02-10T05:30:31.770Z,2.60
2024-02-10T05:33:03.596Z,2.70
2024-02-10T05:35:32.783Z,2.60
2024-02-10T05:38:04.123Z,2.60
2024-02-10T05:40:31.985Z,2.60
2024-02-10T05:43:06.629Z,2.60
2024-02-10T05:45:35.067Z,2.60
2024-02-10T05:48:02.700Z,2.70
2024-02-10T05:50:30.819Z,2.60
2024-02-10T05:52:59.513Z,2.60
2024-02-10T05:55:30.944Z,2.70
2024-02-10T05:58:04.124Z,2.70
2024-02-10T06:00:32.760Z,2.70
2024-02-10T06:03:01.469Z,2.70
2024-02-10T06:05:30.024Z,2.70
2024-02-10T06:07:58.290Z,2.70
2024-02-10T06:10:26.256Z,2.80
2024-02-10T06:12:56.025Z,2.80
2024-02-10T06:15:27.855Z,2.80
2024-02-10T06:18:01.568Z,2.80
2024-02-10T06:20:29.884Z,2.80
2024-02-10T06:22:58.357Z,2.80
2024-02-10T06:25:27.914Z,2.80
2024-02-10T06:28:01.388Z,2.80
2024-02-10T06:30:34.732Z,2.80
2024-02-10T06:33:07.031Z,2.90
2024-02-10T06:35:35.642Z,2.80
2024-02-10T06:38:03.547Z,2.90
2024-02-10T06:40:30.858Z,2.90
2024-02-10T06:42:58.171Z,2.90
2024-02-10T06:45:26.873Z,2.90
2024-02-10T06:47:54.353Z,2.90
2024-02-10T06:50:30.710Z,2.90
2024-02-10T06:53:01.760Z,2.90
2024-02-10T06:55:30.273Z,3.00
2024-02-10T06:57:57.724Z,3.00
2024-02-10T07:00:25.190Z,2.90
2024-02-10T07:02:58.283Z,3.00
2024-02-10T07:05:27.671Z,3.00
2024-02-10T07:07:58.207Z,3.00
2024-02-10T07:10:25.808Z,3.00
2024-02-10T07:12:58.331Z,3.00
2024-02-10T07:15:31.607Z,3.00
2024-02-10T07:18:03.614Z,3.00
2024-02-10T07:20:34.646Z,3.10
2024-02-10T07:23:05.341Z,3.10
2024-02-10T07:25:37.079Z,3.10
2024-02-10T07:28:05.312Z,3.10
2024-02-10T07:30:36.112Z,3.10
2024-02-10T07:33:11.082Z,3.10
2024-02-10T07:35:44.824Z,3.20
2024-02-10T07:38:12.585Z,3.20
2024-02-10T07:40:40.240Z,3.20
2024-02-10T07:43:10.755Z,3.20
2024-02-10T07:45:38.058Z,3.20
2024-02-10T07:48:07.821Z,3.30
2024-02-10T07:50:37.493Z,3.30
2024-02-10T07:53:05.471Z,3.30
2024-02-10T07:55:36.965Z,3.30
2024-02-10T07:58:10.704Z,3.30
2024-02-10T08:00:38.047Z,3.40
2024-02-10T08:03:05.644Z,3.40
2024-02-10T08:05:33.740Z,3.40
2024-02-10T08:08:02.858Z,3.40
2024-02-10T08:10:30.313Z,3.40
2024-02-10T08:12:57.690Z,3.50
2024-02-10T08:15:27.046Z,3.50
2024-02-10T08:18:07.114Z,3.50
2024-02-10T08:20:35.641Z,3.50
2024-02-10T08:23:03.100Z,3.50
2024-02-10T08:25:30.810Z,3.60
2024-02-10T08:28:00.985Z,3.50
2024-02-10T08:30:28.541Z,3.60
2024-02-10T08:32:58.050Z,3.60
2024-02-10T08:35:28.546Z,3.60
2024-02-10T08:37:56.320Z,3.60
2024-02-10T08:40:23.643Z,3.60
2024-02-10T08:42:54.346Z,3.60
2024-02-10T08:45:22.200Z,3.60
2024-02-10T08:47:50.233Z,3.60
2024-02-10T08:50:19.593Z,3.60
2024-02-10T08:52:52.807Z,3.60
2024-02-10T08:55:20.137Z,3.60
2024-02-10T08:57:47.660Z,3.60
2024-02-10T09:00:16.089Z,3.60
2024-02-10T09:02:46.686Z,3.60
2024-02-10T09:05:14.319Z,3.70
2024-02-10T09:07:41.703Z,3.70
2024-02-10T09:10:09.540Z,3.80
2024-02-10T09:12:37.084Z,3.80
2024-02-10T09:15:04.859Z,3.80
2024-02-10T09:17:32.227Z,3.90
2024-02-10T09:19:59.711Z,3.90
2024-02-10T09:22:27.226Z,3.90
2024-02-10T09:24:55.947Z,4.00
2024-02-10T09:27:24.151Z,3.90
2024-02-10T09:29:52.593Z,3.90
2024-02-10T09:32:19.908Z,4.00
2024-02-10T09:34:50.458Z,4.00
2024-02-10T09:37:18.557Z,4.10
2024-02-10T09:39:45.942Z,4.10
2024-02-10T09:42:22.240Z,4.10
2024-02-10T09:44:53.211Z,4.10
2024-02-10T09:47:21.204Z,4.20
2024-02-10T09:49:52.384Z,4.20
2024-02-10T09:52:24.499Z,4.20
2024-02-10T09:54:51.920Z,4.20
2024-02-10T09:57:23.920Z,4.30
2024-02-10T09:59:51.733Z,4.30
2024-02-10T10:02:20.406Z,4.30
2024-02-10T10:04:48.423Z,4.30
2024-02-10T10:07:15.906Z,4.30
2024-02-10T10:09:47.364Z,4.40
2024-02-10T10:12:14.613Z,4.40
2024-02-10T10:14:41.931Z,4.40
2024-02-10T10:17:15.553Z,4.50
2024-02-10T10:19:46.122Z,4.50
2024-02-10T10:22:19.430Z,4.50
2024-02-10T10:24:47.349Z,4.60
2024-02-10T10:27:15.456Z,4.60
2024-02-10T10:29:45.488Z,4.70
2024-02-10T10:32:16.684Z,4.70
2024-02-10T10:34:44.285Z,4.70
2024-02-10T10:37:13.888Z,4.70
2024-02-10T10:39:41.994Z,4.80
2024-02-10T10:42:12.915Z,4.70
2024-02-10T10:44:43.372Z,4.70
2024-02-10T10:47:14.484Z,4.80
2024-02-10T10:49:41.942Z,4.90
2024-02-10T10:52:11.655Z,4.90
2024-02-10T10:54:39.933Z,5.10
2024-02-10T10:57:17.419Z,4.80
2024-02-10T10:59:55.146Z,4.80
2024-02-10T11:02:37.124Z,4.80
2024-02-10T11:05:15.023Z,4.80
2024-02-10T11:07:46.520Z,4.80
2024-02-10T11:10:14.118Z,4.80
2024-02-10T11:12:44.768Z,4.80
2024-02-10T11:15:25.514Z,4.80
2024-02-10T11:18:02.994Z,4.80
2024-02-10T11:20:39.739Z,4.80
2024-02-10T11:23:18.003Z,4.80
2024-02-10T11:25:46.193Z,4.80
2024-02-10T11:28:24.704Z,4.80
2024-02-10T11:30:52.270Z,4.80
2024-02-10T11:33:25.985Z,4.90
2024-02-10T11:35:54.247Z,4.90
2024-02-10T11:38:22.700Z,4.90
2024-02-10T11:40:51.613Z,4.90
2024-02-10T11:43:19.478Z,4.90
2024-02-10T11:45:48.291Z,4.90
2024-02-10T11:48:15.831Z,4.90
2024-02-10T11:50:59.084Z,4.90
2024-02-10T11:53:33.014Z,4.90
2024-02-10T11:56:06.763Z,4.90
2024-02-10T11:58:34.544Z,4.90
2024-02-10T12:01:01.979Z,4.90
2024-02-10T12:03:31.988Z,4.90
2024-02-10T12:06:03.078Z,5.10
2024-02-10T12:08:32.202Z,4.90
2024-02-10T12:11:00.739Z,4.90
2024-02-10T12:13:28.846Z,4.90
2024-02-10T12:16:02.661Z,4.90
2024-02-10T12:18:31.394Z,5.00
2024-02-10T12:20:59.157Z,5.00
2024-02-10T12:23:30.899Z,5.00
2024-02-10T12:26:03.570Z,5.00
2024-02-10T12:28:37.016Z,5.00
2024-02-10T12:31:05.175Z,5.00
2024-02-10T12:33:32.927Z,5.10
2024-02-10T12:36:01.202Z,5.20
2024-02-10T12:38:29.692Z,5.10
2024-02-10T12:40:57.984Z,5.20
2024-02-10T12:43:26.114Z,5.20
2024-02-10T12:45:53.939Z,5.30
2024-02-10T12:48:21.486Z,5.30
2024-02-10T12:50:50.203Z,5.30
2024-02-10T12:53:18.269Z,5.40
2024-02-10T12:55:47.294Z,5.40
2024-02-10T12:58:14.885Z,5.40
2024-02-10T13:00:42.192Z,5.40
2024-02-10T13:03:10.200Z,5.40
2024-02-10T13:05:37.560Z,5.40
2024-02-10T13:08:06.652Z,5.30
2024-02-10T13:10:34.125Z,5.30
2024-02-10T13:13:04.014Z,5.30
2024-02-10T13:15:44.573Z,5.30
2024-02-10T13:18:14.616Z,5.40
2024-02-10T13:20:42.322Z,5.30
2024-02-10T13:23:09.824Z,5.30
2024-02-10T13:25:37.451Z,5.20
2024-02-10T13:28:05.538Z,5.40
2024-02-10T13:30:32.927Z,5.20
2024-02-10T13:33:02.018Z,5.40
2024-02-10T13:35:30.634Z,5.30
2024-02-10T13:38:17.279Z,5.10
2024-02-10T13:41:04.162Z,5.10
2024-02-10T13:43:49.878Z,5.10
2024-02-10T13:46:35.521Z,5.10
2024-02-10T13:49:21.048Z,5.20
2024-02-10T13:52:07.677Z,5.90
2024-02-10T13:54:55.601Z,5.10
2024-02-10T13:57:42.871Z,5.00
2024-02-10T14:00:25.836Z,5.10
2024-02-10T14:03:03.506Z,5.10
2024-02-10T14:05:43.189Z,5.10
2024-02-10T14:08:15.105Z,5.10
2024-02-10T14:11:01.785Z,5.10
2024-02-10T14:13:34.658Z,5.10
2024-02-10T14:16:07.201Z,4.90
2024-02-10T14:18:35.029Z,4.90
2024-02-10T14:21:04.685Z,4.90
2024-02-10T14:23:32.544Z,4.90
2024-02-10T14:26:02.213Z,4.90
2024-02-10T14:28:40.265Z,4.90
2024-02-10T14:31:17.321Z,4.80
2024-02-10T14:33:47.729Z,4.70
2024-02-10T14:36:28.556Z,5.80
2024-02-10T14:38:55.828Z,4.70
2024-02-10T14:41:23.122Z,4.70
2024-02-10T14:43:51.007Z,4.60
2024-02-10T14:46:18.285Z,4.60
2024-02-10T14:48:46.511Z,4.60
2024-02-10T14:51:14.457Z,4.60
2024-02-10T14:53:43.689Z,4.60
2024-02-10T14:56:15.770Z,4.50
2024-02-10T14:58:43.989Z,5.10
2024-02-10T15:01:12.380Z,4.50
2024-02-10T15:03:40.548Z,4.50
2024-02-10T15:06:20.319Z,4.50
2024-02-10T15:08:53.772Z,4.60
2024-02-10T15:11:22.896Z,4.60
2024-02-10T15:13:50.850Z,4.60
2024-02-10T15:16:26.604Z,4.60
2024-02-10T15:18:54.347Z,4.60
2024-02-10T15:21:22.878Z,4.60
2024-02-10T15:23:51.182Z,4.50
2024-02-10T15:26:21.965Z,4.70
2024-02-10T15:28:53.637Z,4.60
2024-02-10T15:31:23.311Z,4.60
2024-02-10T15:33:58.159Z,4.60
2024-02-10T15:36:28.234Z,4.60
2024-02-10T15:39:02.467Z,4.50
2024-02-10T15:41:30.268Z,4.50
2024-02-10T15:43:57.781Z,4.50
2024-02-10T15:46:31.928Z,4.50
2024-02-10T15:49:04.863Z,4.50
2024-02-10T15:51:34.890Z,4.50
2024-02-10T15:54:02.513Z,4.40
2024-02-10T15:56:30.310Z,4.40
2024-02-10T15:58:59.954Z,4.40
2024-02-10T16:01:29.510Z,4.40
2024-02-10T16:04:00.775Z,4.40
2024-02-10T16:06:28.023Z,4.30
2024-02-10T16:08:55.759Z,4.30
2024-02-10T16:11:30.245Z,4.40
2024-02-10T16:13:58.209Z,4.40
2024-02-10T16:16:26.353Z,4.30
2024-02-10T16:18:58.441Z,4.30
2024-02-10T16:21:30.055Z,4.30
2024-02-10T16:24:01.106Z,4.30
2024-02-10T16:26:28.866Z,4.30
2024-02-10T16:28:56.886Z,4.30
2024-02-10T16:31:25.966Z,4.20
2024-02-10T16:33:56.571Z,4.20
2024-02-10T16:36:25.956Z,4.20
2024-02-10T16:38:53.344Z,4.20
2024-02-10T16:41:21.385Z,4.10
2024-02-10T16:43:49.118Z,4.10
2024-02-10T16:46:17.770Z,4.10
2024-02-10T16:48:51.930Z,4.10
2024-02-10T16:51:34.593Z,4.10
2024-02-10T16:54:06.660Z,4.10
2024-02-10T16:56:36.577Z,4.10
2024-02-10T16:59:08.355Z,4.10
2024-02-10T17:01:35.927Z,4.10
2024-02-10T17:04:05.111Z,4.10
2024-02-10T17:06:36.736Z,4.10
2024-02-10T17:09:05.616Z,4.10
2024-02-10T17:11:34.456Z,4.10
2024-02-10T17:14:01.958Z,4.10
2024-02-10T17:16:30.033Z,4.40
2024-02-10T17:19:00.874Z,4.10
2024-02-10T17:21:28.341Z,4.10
2024-02-10T17:23:55.616Z,4.10
2024-02-10T17:26:23.006Z,4.10
2024-02-10T17:28:50.380Z,4.10
2024-02-10T17:31:20.665Z,4.10
2024-02-10T17:33:48.132Z,4.10
2024-02-10T17:36:16.959Z,4.10
2024-02-10T17:38:44.690Z,4.00
2024-02-10T17:41:13.154Z,4.00
2024-02-10T17:43:41.907Z,4.10
2024-02-10T17:46:09.997Z,4.00
2024-02-10T17:48:38.370Z,4.00
2024-02-10T17:51:08.754Z,4.00
2024-02-10T17:53:38.025Z,4.00
2024-02-10T17:56:11.718Z,4.00
2024-02-10T17:58:39.685Z,4.00
2024-02-10T18:01:07.439Z,4.00
2024-02-10T18:03:37.525Z,4.00
2024-02-10T18:06:12.897Z,4.00
2024-02-10T18:08:41.554Z,4.00
2024-02-10T18:11:15.025Z,4.00
2024-02-10T18:13:48.875Z,4.00
2024-02-10T18:16:18.004Z,4.00
2024-02-10T18:18:48.749Z,4.00
2024-02-10T18:21:17.254Z,3.90
2024-02-10T18:23:45.123Z,3.90
2024-02-10T18:26:12.523Z,4.00
2024-02-10T18:28:39.935Z,3.90
2024-02-10T18:31:07.234Z,3.90
2024-02-10T18:33:37.536Z,3.90
2024-02-10T18:36:08.688Z,3.90
2024-02-10T18:38:35.926Z,3.90
2024-02-10T18:41:03.494Z,3.90
2024-02-10T18:43:31.634Z,3.90
2024-02-10T18:46:01.153Z,3.80
2024-02-10T18:48:28.756Z,3.90
2024-02-10T18:50:56.189Z,3.90
2024-02-10T18:53:23.774Z,3.90
2024-02-10T18:55:54.304Z,3.90
2024-02-10T18:58:21.691Z,5.00
2024-02-10T19:00:52.106Z,3.90
2024-02-10T19:03:20.034Z,3.90
2024-02-10T19:05:49.306Z,3.90
2024-02-10T19:08:16.986Z,3.90
2024-02-10T19:10:45.144Z,3.90
2024-02-10T19:13:15.537Z,3.90
2024-02-10T19:15:43.175Z,3.90
2024-02-10T19:18:11.749Z,3.90
2024-02-10T19:20:39.180Z,3.90
2024-02-10T19:23:06.978Z,3.90
2024-02-10T19:25:34.578Z,4.00
2024-02-10T19:28:02.175Z,3.90
2024-02-10T19:30:29.656Z,3.90
2024-02-10T19:32:57.089Z,3.90
2024-02-10T19:35:28.150Z,3.90
2024-02-10T19:37:59.193Z,3.90
2024-02-10T19:40:26.773Z,3.90
2024-02-10T19:42:56.262Z,3.90
2024-02-10T19:45:27.065Z,3.90
2024-02-10T19:47:54.812Z,3.90
2024-02-10T19:50:22.929Z,3.90
2024-02-10T19:52:50.622Z,4.20
2024-02-10T19:55:21.492Z,3.90
2024-02-10T19:57:49.463Z,4.00
2024-02-10T20:00:19.525Z,3.90
2024-02-10T20:02:46.834Z,4.00
2024-02-10T20:05:15.896Z,4.00
2024-02-10T20:07:44.940Z,3.90
2024-02-10T20:10:19.047Z,3.90
2024-02-10T20:12:50.195Z,4.00
2024-02-10T20:15:18.978Z,3.90
2024-02-10T20:17:52.660Z,3.90
2024-02-10T20:20:22.521Z,3.90
2024-02-10T20:22:54.620Z,3.90
2024-02-10T20:25:24.751Z,4.00
2024-02-10T20:28:49.751Z,4.90
2024-02-10T20:31:29.793Z,4.10
2024-02-10T20:33:57.451Z,3.40
2024-02-10T20:36:27.882Z,4.10
2024-02-10T20:38:57.840Z,4.00
2024-02-10T20:41:25.161Z,4.00
2024-02-10T20:43:52.552Z,3.90
2024-02-10T20:46:19.786Z,3.90
2024-02-10T20:48:47.157Z,4.00
2024-02-10T20:51:16.288Z,4.00
2024-02-10T20:53:43.677Z,4.00
2024-02-10T20:56:16.737Z,3.90
2024-02-10T20:58:44.477Z,3.90
2024-02-10T21:01:12.465Z,3.90
2024-02-10T21:03:40.122Z,3.90
2024-02-10T21:06:08.174Z,3.90
2024-02-10T21:08:38.838Z,3.90
2024-02-10T21:11:06.924Z,3.90
2024-02-10T21:13:34.785Z,3.90
2024-02-10T21:16:29.824Z,4.00
2024-02-10T21:19:08.297Z,3.90
2024-02-10T21:21:39.027Z,4.00
2024-02-10T21:24:08.767Z,3.80
2024-02-10T21:26:37.988Z,4.00
2024-02-10T21:29:08.801Z,3.90
2024-02-10T21:31:37.331Z,3.90
2024-02-10T21:34:06.053Z,4.00
2024-02-10T21:36:36.667Z,4.10
2024-02-10T21:39:11.994Z,4.00
2024-02-10T21:41:39.696Z,3.90
2024-02-10T21:44:08.344Z,3.90
2024-02-10T21:46:36.362Z,4.40
2024-02-10T21:49:04.217Z,4.00
2024-02-10T21:51:37.457Z,4.00
2024-02-10T21:54:06.655Z,4.00
2024-02-10T21:56:43.320Z,3.90
2024-02-10T21:59:17.167Z,4.00
2024-02-10T22:01:50.072Z,3.90
2024-02-10T22:04:18.177Z,4.00
2024-02-10T22:06:45.897Z,4.00
2024-02-10T22:09:13.199Z,3.90
2024-02-10T22:11:41.899Z,4.10
2024-02-10T22:14:10.835Z,3.90
2024-02-10T22:16:38.876Z,3.90
2024-02-10T22:19:08.210Z,3.90
2024-02-10T22:21:35.814Z,4.30
2024-02-10T22:24:03.980Z,4.00
2024-02-10T22:26:32.514Z,3.90
2024-02-10T22:29:00.043Z,3.90
2024-02-10T22:31:40.159Z,4.40
2024-02-10T22:34:07.665Z,3.90
2024-02-10T22:36:35.808Z,3.90
2024-02-10T22:39:16.199Z,4.00
2024-02-10T22:41:48.639Z,3.90
2024-02-10T22:44:17.536Z,3.90
2024-02-10T22:46:49.923Z,3.90
2024-02-10T22:49:20.445Z,3.90
2024-02-10T22:51:49.390Z,3.90
2024-02-10T22:54:17.356Z,3.90
2024-02-10T22:56:44.829Z,3.90
2024-02-10T22:59:12.908Z,3.90
2024-02-10T23:01:40.582Z,4.70
2024-02-10T23:04:07.974Z,4.00
2024-02-10T23:06:38.633Z,4.10
2024-02-10T23:09:15.162Z,4.10
2024-02-10T23:11:47.693Z,4.20
2024-02-10T23:14:15.228Z,4.30
2024-02-10T23:16:46.940Z,4.20
2024-02-10T23:19:14.257Z,4.10
2024-02-10T23:21:45.109Z,4.00
2024-02-10T23:24:12.532Z,4.00
2024-02-10T23:26:42.994Z,3.90
2024-02-10T23:29:13.137Z,4.00
2024-02-10T23:31:42.420Z,4.00
2024-02-10T23:34:13.307Z,4.00
2024-02-10T23:36:46.079Z,4.20
2024-02-10T23:39:13.638Z,4.00
2024-02-10T23:41:40.843Z,4.00
2024-02-10T23:44:09.237Z,4.00
2024-02-10T23:46:37.397Z,4.00
2024-02-10T23:49:04.906Z,4.00
2024-02-10T23:51:33.808Z,4.00
2024-02-10T23:54:10.433Z,4.00
2024-02-10T23:56:37.721Z,4.00
2024-02-10T23:59:07.218Z,4.00
